sensor_id;sensor_type;location;lat;lon;timestamp;pressure;altitude;pressure_sealevel;temperature;humidity
51239;BME280;38154;47.548;18.828;2023-03-03T00:01:06;98953.56;;;0.35;100.00
51239;BME280;38154;47.548;18.828;2023-03-03T00:03:32;98954.59;;;0.39;100.00
51239;BME280;38154;47.548;18.828;2023-03-03T00:05:58;98957.22;;;0.40;100.00
51239;BME280;38154;47.548;18.828;2023-03-03T00:08:25;98951.44;;;0.44;100.00
51239;BME280;38154;47.548;18.828;2023-03-03T00:10:51;98957.84;;;0.34;100.00
51239;BME280;38154;47.548;18.828;2023-03-03T00:13:20;98957.16;;;0.39;100.00
51239;BME280;38154;47.548;18.828;2023-03-03T00:15:46;98945.94;;;0.36;100.00
51239;BME280;38154;47.548;18.828;2023-03-03T00:18:36;98943.88;;;0.47;100.00
51239;BME280;38154;47.548;18.828;2023-03-03T00:21:41;98945.47;;;0.45;100.00
51239;BME280;38154;47.548;18.828;2023-03-03T00:26:50;98941.66;;;0.35;100.00
51239;BME280;38154;47.548;18.828;2023-03-03T00:29:30;98943.19;;;0.32;100.00
51239;BME280;38154;47.548;18.828;2023-03-03T00:32:18;98939.09;;;0.35;100.00
51239;BME280;38154;47.548;18.828;2023-03-03T00:34:46;98935.84;;;0.40;100.00
51239;BME280;38154;47.548;18.828;2023-03-03T00:39:58;98932.84;;;0.50;100.00
51239;BME280;38154;47.548;18.828;2023-03-03T00:42:27;98919.78;;;0.44;100.00
51239;BME280;38154;47.548;18.828;2023-03-03T00:44:57;98925.72;;;0.43;100.00
51239;BME280;38154;47.548;18.828;2023-03-03T00:49:55;98924.63;;;0.37;100.00
51239;BME280;38154;47.548;18.828;2023-03-03T00:52:26;98928.91;;;0.37;100.00
51239;BME280;38154;47.548;18.828;2023-03-03T00:54:53;98915.03;;;0.33;100.00
51239;BME280;38154;47.548;18.828;2023-03-03T00:57:19;98924.34;;;0.31;100.00
51239;BME280;38154;47.548;18.828;2023-03-03T00:59:45;98917.28;;;0.26;100.00
51239;BME280;38154;47.548;18.828;2023-03-03T01:02:11;98912.34;;;0.30;100.00
51239;BME280;38154;47.548;18.828;2023-03-03T01:04:38;98909.72;;;0.29;100.00
51239;BME280;38154;47.548;18.828;2023-03-03T01:07:05;98914.84;;;0.29;100.00
51239;BME280;38154;47.548;18.828;2023-03-03T01:09:30;98912.06;;;0.24;100.00
51239;BME280;38154;47.548;18.828;2023-03-03T01:11:57;98906.00;;;0.22;100.00
51239;BME280;38154;47.548;18.828;2023-03-03T01:14:23;98907.50;;;0.17;100.00
51239;BME280;38154;47.548;18.828;2023-03-03T01:16:49;98903.87;;;0.13;100.00
51239;BME280;38154;47.548;18.828;2023-03-03T01:19:14;98892.03;;;0.15;100.00
51239;BME280;38154;47.548;18.828;2023-03-03T01:21:40;98904.09;;;0.18;100.00
51239;BME280;38154;47.548;18.828;2023-03-03T01:24:06;98900.06;;;0.23;100.00
51239;BME280;38154;47.548;18.828;2023-03-03T01:26:32;98900.06;;;0.23;100.00
51239;BME280;38154;47.548;18.828;2023-03-03T01:28:58;98893.31;;;0.25;100.00
51239;BME280;38154;47.548;18.828;2023-03-03T01:31:24;98893.84;;;0.18;100.00
51239;BME280;38154;47.548;18.828;2023-03-03T01:33:50;98894.75;;;0.18;100.00
51239;BME280;38154;47.548;18.828;2023-03-03T01:36:22;98894.00;;;0.21;100.00
51239;BME280;38154;47.548;18.828;2023-03-03T01:38:48;98888.84;;;0.21;100.00
51239;BME280;38154;47.548;18.828;2023-03-03T01:41:14;98892.84;;;0.14;100.00
51239;BME280;38154;47.548;18.828;2023-03-03T01:43:44;98880.63;;;0.09;100.00
51239;BME280;38154;47.548;18.828;2023-03-03T01:48:49;98877.66;;;0.19;100.00
51239;BME280;38154;47.548;18.828;2023-03-03T01:51:28;98875.25;;;0.22;100.00
51239;BME280;38154;47.548;18.828;2023-03-03T01:54:02;98876.72;;;0.17;100.00
51239;BME280;38154;47.548;18.828;2023-03-03T01:56:29;98873.41;;;0.20;100.00
51239;BME280;38154;47.548;18.828;2023-03-03T01:59:02;98871.13;;;0.26;100.00
51239;BME280;38154;47.548;18.828;2023-03-03T02:01:31;98872.31;;;0.34;100.00
51239;BME280;38154;47.548;18.828;2023-03-03T02:03:58;98871.22;;;0.48;100.00
51239;BME280;38154;47.548;18.828;2023-03-03T02:06:31;98876.75;;;0.58;100.00
51239;BME280;38154;47.548;18.828;2023-03-03T02:11:45;98867.03;;;0.91;100.00
51239;BME280;38154;47.548;18.828;2023-03-03T02:14:13;98873.41;;;1.01;100.00
51239;BME280;38154;47.548;18.828;2023-03-03T02:16:39;98872.66;;;1.03;100.00
51239;BME280;38154;47.548;18.828;2023-03-03T02:19:15;98876.53;;;1.15;100.00
51239;BME280;38154;47.548;18.828;2023-03-03T02:21:42;98868.25;;;1.22;100.00
51239;BME280;38154;47.548;18.828;2023-03-03T02:24:28;98873.44;;;1.23;100.00
51239;BME280;38154;47.548;18.828;2023-03-03T02:26:57;98869.44;;;1.30;100.00
51239;BME280;38154;47.548;18.828;2023-03-03T02:29:23;98862.03;;;1.38;100.00
51239;BME280;38154;47.548;18.828;2023-03-03T02:31:49;98863.09;;;1.43;100.00
51239;BME280;38154;47.548;18.828;2023-03-03T02:34:15;98869.22;;;1.46;100.00
51239;BME280;38154;47.548;18.828;2023-03-03T02:36:42;98860.72;;;1.49;100.00
51239;BME280;38154;47.548;18.828;2023-03-03T02:39:20;98869.34;;;1.50;100.00
51239;BME280;38154;47.548;18.828;2023-03-03T02:41:54;98857.41;;;1.52;100.00
51239;BME280;38154;47.548;18.828;2023-03-03T02:44:22;98871.19;;;1.54;100.00
51239;BME280;38154;47.548;18.828;2023-03-03T02:46:50;98866.91;;;1.54;100.00
51239;BME280;38154;47.548;18.828;2023-03-03T02:49:20;98858.22;;;1.51;100.00
51239;BME280;38154;47.548;18.828;2023-03-03T02:51:46;98855.59;;;1.49;100.00
51239;BME280;38154;47.548;18.828;2023-03-03T02:54:14;98853.09;;;1.51;100.00
51239;BME280;38154;47.548;18.828;2023-03-03T02:56:41;98845.38;;;1.51;100.00
51239;BME280;38154;47.548;18.828;2023-03-03T02:59:07;98852.22;;;1.50;100.00
51239;BME280;38154;47.548;18.828;2023-03-03T03:01:33;98849.66;;;1.50;100.00
51239;BME280;38154;47.548;18.828;2023-03-03T03:04:06;98848.72;;;1.48;100.00
51239;BME280;38154;47.548;18.828;2023-03-03T03:06:33;98844.38;;;1.47;100.00
51239;BME280;38154;47.548;18.828;2023-03-03T03:08:59;98846.84;;;1.44;100.00
51239;BME280;38154;47.548;18.828;2023-03-03T03:11:25;98851.03;;;1.42;100.00
51239;BME280;38154;47.548;18.828;2023-03-03T03:13:51;98840.16;;;1.47;100.00
51239;BME280;38154;47.548;18.828;2023-03-03T03:16:17;98842.94;;;1.54;100.00
51239;BME280;38154;47.548;18.828;2023-03-03T03:18:44;98834.28;;;1.52;100.00
51239;BME280;38154;47.548;18.828;2023-03-03T03:21:12;98831.59;;;1.48;100.00
51239;BME280;38154;47.548;18.828;2023-03-03T03:23:38;98840.25;;;1.51;100.00
51239;BME280;38154;47.548;18.828;2023-03-03T03:26:05;98825.72;;;1.51;100.00
51239;BME280;38154;47.548;18.828;2023-03-03T03:28:32;98828.56;;;1.59;100.00
51239;BME280;38154;47.548;18.828;2023-03-03T03:30:57;98833.13;;;1.66;100.00
51239;BME280;38154;47.548;18.828;2023-03-03T03:33:24;98831.50;;;1.68;100.00
51239;BME280;38154;47.548;18.828;2023-03-03T03:35:50;98820.28;;;1.66;100.00
51239;BME280;38154;47.548;18.828;2023-03-03T03:38:16;98824.34;;;1.61;100.00
51239;BME280;38154;47.548;18.828;2023-03-03T03:40:42;98827.50;;;1.54;100.00
51239;BME280;38154;47.548;18.828;2023-03-03T03:43:08;98820.22;;;1.42;100.00
51239;BME280;38154;47.548;18.828;2023-03-03T03:45:34;98817.38;;;1.34;100.00
51239;BME280;38154;47.548;18.828;2023-03-03T03:48:00;98816.25;;;1.27;100.00
51239;BME280;38154;47.548;18.828;2023-03-03T03:50:26;98820.37;;;1.24;100.00
51239;BME280;38154;47.548;18.828;2023-03-03T03:52:52;98816.75;;;1.19;100.00
51239;BME280;38154;47.548;18.828;2023-03-03T03:55:18;98812.25;;;1.13;100.00
51239;BME280;38154;47.548;18.828;2023-03-03T03:57:43;98807.00;;;1.10;100.00
51239;BME280;38154;47.548;18.828;2023-03-03T04:00:10;98809.84;;;0.95;100.00
51239;BME280;38154;47.548;18.828;2023-03-03T04:02:36;98804.47;;;0.89;100.00
51239;BME280;38154;47.548;18.828;2023-03-03T04:05:02;98805.16;;;0.85;100.00
51239;BME280;38154;47.548;18.828;2023-03-03T04:07:28;98806.72;;;0.81;100.00
51239;BME280;38154;47.548;18.828;2023-03-03T04:09:54;98803.91;;;0.75;100.00
51239;BME280;38154;47.548;18.828;2023-03-03T04:12:20;98804.47;;;0.68;100.00
51239;BME280;38154;47.548;18.828;2023-03-03T04:14:46;98809.53;;;0.66;100.00
51239;BME280;38154;47.548;18.828;2023-03-03T04:17:17;98806.19;;;0.67;100.00
51239;BME280;38154;47.548;18.828;2023-03-03T04:19:43;98809.72;;;0.71;100.00
51239;BME280;38154;47.548;18.828;2023-03-03T04:22:09;98811.66;;;0.77;100.00
51239;BME280;38154;47.548;18.828;2023-03-03T04:24:35;98806.66;;;0.80;100.00
51239;BME280;38154;47.548;18.828;2023-03-03T04:27:01;98805.94;;;0.84;100.00
51239;BME280;38154;47.548;18.828;2023-03-03T04:29:27;98804.41;;;0.87;100.00
51239;BME280;38154;47.548;18.828;2023-03-03T04:31:53;98804.75;;;0.97;100.00
51239;BME280;38154;47.548;18.828;2023-03-03T04:34:19;98802.44;;;1.03;100.00
51239;BME280;38154;47.548;18.828;2023-03-03T04:36:45;98797.72;;;1.14;100.00
51239;BME280;38154;47.548;18.828;2023-03-03T04:39:11;98796.63;;;1.29;100.00
51239;BME280;38154;47.548;18.828;2023-03-03T04:41:37;98795.44;;;1.44;100.00
51239;BME280;38154;47.548;18.828;2023-03-03T04:44:03;98800.78;;;1.48;100.00
51239;BME280;38154;47.548;18.828;2023-03-03T04:46:29;98794.28;;;1.58;100.00
51239;BME280;38154;47.548;18.828;2023-03-03T04:48:55;98794.59;;;1.66;100.00
51239;BME280;38154;47.548;18.828;2023-03-03T04:51:22;98798.25;;;1.73;100.00
51239;BME280;38154;47.548;18.828;2023-03-03T04:53:47;98790.13;;;1.84;100.00
51239;BME280;38154;47.548;18.828;2023-03-03T04:56:14;98793.06;;;1.95;100.00
51239;BME280;38154;47.548;18.828;2023-03-03T04:58:40;98796.03;;;2.08;100.00
51239;BME280;38154;47.548;18.828;2023-03-03T05:01:06;98795.41;;;2.13;100.00
51239;BME280;38154;47.548;18.828;2023-03-03T05:03:32;98793.00;;;2.18;100.00
51239;BME280;38154;47.548;18.828;2023-03-03T05:05:58;98796.66;;;2.25;100.00
51239;BME280;38154;47.548;18.828;2023-03-03T05:08:23;98801.19;;;2.32;100.00
51239;BME280;38154;47.548;18.828;2023-03-03T05:10:53;98798.91;;;2.41;100.00
51239;BME280;38154;47.548;18.828;2023-03-03T05:13:19;98801.59;;;2.44;100.00
51239;BME280;38154;47.548;18.828;2023-03-03T05:15:53;98800.00;;;2.48;100.00
51239;BME280;38154;47.548;18.828;2023-03-03T05:18:23;98799.53;;;2.59;100.00
51239;BME280;38154;47.548;18.828;2023-03-03T05:20:51;98801.41;;;2.64;100.00
51239;BME280;38154;47.548;18.828;2023-03-03T05:23:17;98801.41;;;2.64;100.00
51239;BME280;38154;47.548;18.828;2023-03-03T05:25:43;98804.09;;;2.67;100.00
51239;BME280;38154;47.548;18.828;2023-03-03T05:28:10;98800.81;;;2.72;100.00
51239;BME280;38154;47.548;18.828;2023-03-03T05:30:36;98797.63;;;2.79;100.00
51239;BME280;38154;47.548;18.828;2023-03-03T05:33:03;98800.41;;;2.86;100.00
51239;BME280;38154;47.548;18.828;2023-03-03T05:35:29;98806.50;;;2.89;100.00
51239;BME280;38154;47.548;18.828;2023-03-03T05:37:56;98801.62;;;2.97;100.00
51239;BME280;38154;47.548;18.828;2023-03-03T05:40:24;98808.72;;;3.04;100.00
51239;BME280;38154;47.548;18.828;2023-03-03T05:42:50;98807.22;;;3.11;100.00
51239;BME280;38154;47.548;18.828;2023-03-03T05:45:17;98809.12;;;3.18;100.00
51239;BME280;38154;47.548;18.828;2023-03-03T05:47:50;98816.31;;;3.27;100.00
51239;BME280;38154;47.548;18.828;2023-03-03T05:50:16;98818.13;;;3.31;100.00
51239;BME280;38154;47.548;18.828;2023-03-03T05:52:42;98818.34;;;3.37;100.00
51239;BME280;38154;47.548;18.828;2023-03-03T05:55:09;98824.50;;;3.42;100.00
51239;BME280;38154;47.548;18.828;2023-03-03T05:57:35;98808.44;;;3.51;100.00
51239;BME280;38154;47.548;18.828;2023-03-03T06:00:02;98815.50;;;3.58;100.00
51239;BME280;38154;47.548;18.828;2023-03-03T06:02:28;98819.91;;;3.61;100.00
51239;BME280;38154;47.548;18.828;2023-03-03T06:04:54;98817.72;;;3.75;100.00
51239;BME280;38154;47.548;18.828;2023-03-03T06:07:20;98814.47;;;3.82;100.00
51239;BME280;38154;47.548;18.828;2023-03-03T06:09:46;98819.78;;;3.86;100.00
51239;BME280;38154;47.548;18.828;2023-03-03T06:12:12;98821.72;;;3.95;100.00
51239;BME280;38154;47.548;18.828;2023-03-03T06:14:38;98822.78;;;4.02;100.00
51239;BME280;38154;47.548;18.828;2023-03-03T06:17:04;98825.53;;;4.08;100.00
51239;BME280;38154;47.548;18.828;2023-03-03T06:19:31;98821.78;;;4.28;100.00
51239;BME280;38154;47.548;18.828;2023-03-03T06:21:57;98822.28;;;4.47;100.00
51239;BME280;38154;47.548;18.828;2023-03-03T06:24:23;98818.09;;;4.52;100.00
51239;BME280;38154;47.548;18.828;2023-03-03T06:26:50;98820.09;;;4.62;100.00
51239;BME280;38154;47.548;18.828;2023-03-03T06:29:16;98825.66;;;4.78;100.00
51239;BME280;38154;47.548;18.828;2023-03-03T06:31:42;98826.09;;;4.95;100.00
51239;BME280;38154;47.548;18.828;2023-03-03T06:34:09;98822.19;;;5.12;100.00
51239;BME280;38154;47.548;18.828;2023-03-03T06:36:35;98823.34;;;5.25;100.00
51239;BME280;38154;47.548;18.828;2023-03-03T06:39:01;98829.69;;;5.39;100.00
51239;BME280;38154;47.548;18.828;2023-03-03T06:41:27;98828.50;;;5.62;100.00
51239;BME280;38154;47.548;18.828;2023-03-03T06:43:53;98829.97;;;5.90;100.00
51239;BME280;38154;47.548;18.828;2023-03-03T06:46:19;98837.34;;;6.12;100.00
51239;BME280;38154;47.548;18.828;2023-03-03T06:48:45;98847.81;;;6.19;100.00
51239;BME280;38154;47.548;18.828;2023-03-03T06:51:23;98850.75;;;6.36;100.00
51239;BME280;38154;47.548;18.828;2023-03-03T06:53:55;98847.44;;;6.44;100.00
51239;BME280;38154;47.548;18.828;2023-03-03T06:56:25;98852.09;;;6.62;100.00
51239;BME280;38154;47.548;18.828;2023-03-03T06:58:54;98857.19;;;6.58;100.00
51239;BME280;38154;47.548;18.828;2023-03-03T07:01:21;98852.44;;;6.34;100.00
51239;BME280;38154;47.548;18.828;2023-03-03T07:03:46;98849.87;;;6.35;100.00
51239;BME280;38154;47.548;18.828;2023-03-03T07:06:23;98851.47;;;6.30;100.00
51239;BME280;38154;47.548;18.828;2023-03-03T07:08:51;98860.91;;;6.26;100.00
51239;BME280;38154;47.548;18.828;2023-03-03T07:11:19;98858.25;;;6.22;100.00
51239;BME280;38154;47.548;18.828;2023-03-03T07:13:50;98865.06;;;6.18;100.00
51239;BME280;38154;47.548;18.828;2023-03-03T07:16:18;98862.41;;;6.13;100.00
51239;BME280;38154;47.548;18.828;2023-03-03T07:21:29;98874.69;;;6.24;100.00
51239;BME280;38154;47.548;18.828;2023-03-03T07:23:56;98881.44;;;6.17;100.00
51239;BME280;38154;47.548;18.828;2023-03-03T07:26:29;98880.16;;;5.98;100.00
51239;BME280;38154;47.548;18.828;2023-03-03T07:28:59;98882.44;;;5.84;100.00
51239;BME280;38154;47.548;18.828;2023-03-03T07:33:59;98892.22;;;5.60;100.00
51239;BME280;38154;47.548;18.828;2023-03-03T07:36:28;98891.84;;;5.43;100.00
51239;BME280;38154;47.548;18.828;2023-03-03T07:38:58;98892.69;;;5.42;100.00
51239;BME280;38154;47.548;18.828;2023-03-03T07:41:25;98900.81;;;5.57;100.00
51239;BME280;38154;47.548;18.828;2023-03-03T07:43:53;98892.97;;;5.54;100.00
51239;BME280;38154;47.548;18.828;2023-03-03T07:46:35;98889.94;;;5.35;100.00
51239;BME280;38154;47.548;18.828;2023-03-03T07:51:47;98889.00;;;5.32;100.00
51239;BME280;38154;47.548;18.828;2023-03-03T07:56:49;98894.84;;;5.23;100.00
51239;BME280;38154;47.548;18.828;2023-03-03T07:59:24;98896.44;;;5.18;100.00
51239;BME280;38154;47.548;18.828;2023-03-03T08:01:53;98890.28;;;5.14;100.00
51239;BME280;38154;47.548;18.828;2023-03-03T08:04:48;98897.47;;;5.25;100.00
51239;BME280;38154;47.548;18.828;2023-03-03T08:07:18;98891.47;;;5.27;100.00
51239;BME280;38154;47.548;18.828;2023-03-03T08:10:00;98887.28;;;5.32;100.00
51239;BME280;38154;47.548;18.828;2023-03-03T08:12:40;98888.31;;;5.39;100.00
51239;BME280;38154;47.548;18.828;2023-03-03T08:15:21;98886.63;;;5.41;100.00
51239;BME280;38154;47.548;18.828;2023-03-03T08:17:48;98889.44;;;5.50;100.00
51239;BME280;38154;47.548;18.828;2023-03-03T08:22:59;98895.75;;;5.62;100.00
51239;BME280;38154;47.548;18.828;2023-03-03T08:25:25;98898.44;;;5.68;100.00
51239;BME280;38154;47.548;18.828;2023-03-03T08:27:51;98891.75;;;5.76;100.00
51239;BME280;38154;47.548;18.828;2023-03-03T08:30:17;98898.22;;;5.95;100.00
51239;BME280;38154;47.548;18.828;2023-03-03T08:32:42;98897.94;;;6.22;100.00
51239;BME280;38154;47.548;18.828;2023-03-03T08:35:08;98904.06;;;6.26;100.00
51239;BME280;38154;47.548;18.828;2023-03-03T08:37:34;98895.50;;;6.30;100.00
51239;BME280;38154;47.548;18.828;2023-03-03T08:40:00;98907.78;;;6.39;100.00
51239;BME280;38154;47.548;18.828;2023-03-03T08:42:26;98906.94;;;6.41;100.00
51239;BME280;38154;47.548;18.828;2023-03-03T08:44:54;98909.56;;;6.43;100.00
51239;BME280;38154;47.548;18.828;2023-03-03T08:47:20;98908.84;;;6.50;100.00
51239;BME280;38154;47.548;18.828;2023-03-03T08:49:46;98908.38;;;6.69;100.00
51239;BME280;38154;47.548;18.828;2023-03-03T08:52:12;98908.75;;;6.91;100.00
51239;BME280;38154;47.548;18.828;2023-03-03T08:54:38;98906.78;;;7.27;100.00
51239;BME280;38154;47.548;18.828;2023-03-03T08:57:04;98909.97;;;7.64;100.00
51239;BME280;38154;47.548;18.828;2023-03-03T08:59:30;98903.56;;;7.99;100.00
51239;BME280;38154;47.548;18.828;2023-03-03T09:01:56;98905.63;;;8.25;100.00
51239;BME280;38154;47.548;18.828;2023-03-03T09:04:22;98906.50;;;8.27;100.00
51239;BME280;38154;47.548;18.828;2023-03-03T09:06:48;98911.25;;;8.59;100.00
51239;BME280;38154;47.548;18.828;2023-03-03T09:09:13;98907.31;;;8.95;100.00
51239;BME280;38154;47.548;18.828;2023-03-03T09:11:39;98911.59;;;8.93;100.00
51239;BME280;38154;47.548;18.828;2023-03-03T09:14:13;98916.09;;;9.08;100.00
51239;BME280;38154;47.548;18.828;2023-03-03T09:16:54;98915.16;;;8.98;100.00
51239;BME280;38154;47.548;18.828;2023-03-03T09:19:27;98914.00;;;9.70;98.83
51239;BME280;38154;47.548;18.828;2023-03-03T09:21:56;98909.28;;;10.54;93.86
51239;BME280;38154;47.548;18.828;2023-03-03T09:24:26;98908.53;;;11.82;87.43
51239;BME280;38154;47.548;18.828;2023-03-03T09:26:53;98904.41;;;14.24;72.07
51239;BME280;38154;47.548;18.828;2023-03-03T09:29:37;98909.50;;;15.61;65.87
51239;BME280;38154;47.548;18.828;2023-03-03T09:32:23;98905.56;;;16.35;58.31
51239;BME280;38154;47.548;18.828;2023-03-03T09:34:51;98907.41;;;16.29;57.54
51239;BME280;38154;47.548;18.828;2023-03-03T09:37:22;98907.50;;;16.25;57.59
51239;BME280;38154;47.548;18.828;2023-03-03T09:48:21;98917.88;;;18.53;49.82
51239;BME280;38154;47.548;18.828;2023-03-03T09:51:08;98916.91;;;18.87;48.86
51239;BME280;38154;47.548;18.828;2023-03-03T09:56:24;98915.66;;;19.55;44.64
51239;BME280;38154;47.548;18.828;2023-03-03T09:59:28;98916.03;;;19.16;45.30
51239;BME280;38154;47.548;18.828;2023-03-03T10:10:47;98903.97;;;14.58;58.39
51239;BME280;38154;47.548;18.828;2023-03-03T10:16:29;98903.59;;;16.01;53.53
51239;BME280;38154;47.548;18.828;2023-03-03T10:19:11;98906.53;;;17.13;50.32
51239;BME280;38154;47.548;18.828;2023-03-03T10:21:49;98904.03;;;17.07;48.93
51239;BME280;38154;47.548;18.828;2023-03-03T10:24:42;98909.03;;;17.55;47.36
51239;BME280;38154;47.548;18.828;2023-03-03T10:35:52;98905.97;;;18.38;46.05
51239;BME280;38154;47.548;18.828;2023-03-03T10:38:33;98895.47;;;18.66;44.45
51239;BME280;38154;47.548;18.828;2023-03-03T10:46:53;98887.78;;;17.96;45.66
51239;BME280;38154;47.548;18.828;2023-03-03T10:52:21;98887.34;;;17.44;47.43
51239;BME280;38154;47.548;18.828;2023-03-03T10:57:56;98886.13;;;18.86;44.98
51239;BME280;38154;47.548;18.828;2023-03-03T11:09:08;98867.31;;;18.37;46.05
51239;BME280;38154;47.548;18.828;2023-03-03T11:14:50;98856.44;;;19.06;44.02
51239;BME280;38154;47.548;18.828;2023-03-03T11:17:42;98864.09;;;19.14;43.30
51239;BME280;38154;47.548;18.828;2023-03-03T11:26:05;98840.25;;;17.65;46.30
51239;BME280;38154;47.548;18.828;2023-03-03T11:37:07;98827.69;;;17.40;48.05
51239;BME280;38154;47.548;18.828;2023-03-03T11:39:35;98822.03;;;17.90;46.85
51239;BME280;38154;47.548;18.828;2023-03-03T11:42:33;98824.84;;;18.43;45.04
51239;BME280;38154;47.548;18.828;2023-03-03T11:45:28;98824.50;;;18.26;45.92
51239;BME280;38154;47.548;18.828;2023-03-03T11:50:57;98817.06;;;18.40;43.66
51239;BME280;38154;47.548;18.828;2023-03-03T11:56:22;98808.56;;;17.99;44.26
51239;BME280;38154;47.548;18.828;2023-03-03T12:04:55;98791.09;;;15.67;51.14
51239;BME280;38154;47.548;18.828;2023-03-03T12:07:27;98797.53;;;15.99;49.25
51239;BME280;38154;47.548;18.828;2023-03-03T12:10:20;98793.47;;;15.84;49.82
51239;BME280;38154;47.548;18.828;2023-03-03T12:12:58;98797.25;;;15.17;51.23
51239;BME280;38154;47.548;18.828;2023-03-03T12:29:43;98780.72;;;15.11;52.28
51239;BME280;38154;47.548;18.828;2023-03-03T12:40:57;98780.63;;;14.62;55.70
51239;BME280;38154;47.548;18.828;2023-03-03T12:46:22;98791.16;;;14.58;53.43
51239;BME280;38154;47.548;18.828;2023-03-03T12:48:50;98787.13;;;14.34;53.92
51239;BME280;38154;47.548;18.828;2023-03-03T12:51:51;98788.94;;;14.30;54.55
51239;BME280;38154;47.548;18.828;2023-03-03T12:54:29;98783.06;;;14.11;53.69
51239;BME280;38154;47.548;18.828;2023-03-03T12:57:25;98782.06;;;14.20;53.77
51239;BME280;38154;47.548;18.828;2023-03-03T13:05:32;98767.38;;;14.06;53.31
51239;BME280;38154;47.548;18.828;2023-03-03T13:08:21;98768.44;;;13.93;54.15
51239;BME280;38154;47.548;18.828;2023-03-03T13:11:00;98762.59;;;13.71;54.61
51239;BME280;38154;47.548;18.828;2023-03-03T13:16:03;98762.94;;;13.37;56.05
51239;BME280;38154;47.548;18.828;2023-03-03T13:21:23;98767.97;;;13.57;55.95
51239;BME280;38154;47.548;18.828;2023-03-03T13:34:57;98752.44;;;13.39;54.72
51239;BME280;38154;47.548;18.828;2023-03-03T13:37:59;98750.53;;;13.56;54.40
51239;BME280;38154;47.548;18.828;2023-03-03T13:40:45;98745.38;;;13.47;54.81
51239;BME280;38154;47.548;18.828;2023-03-03T13:43:25;98742.66;;;13.56;53.29
51239;BME280;38154;47.548;18.828;2023-03-03T14:05:03;98736.53;;;12.61;54.16
51239;BME280;38154;47.548;18.828;2023-03-03T14:07:57;98740.16;;;12.40;53.60
51239;BME280;38154;47.548;18.828;2023-03-03T14:10:31;98740.25;;;12.24;54.39
51239;BME280;38154;47.548;18.828;2023-03-03T14:13:05;98742.06;;;12.13;54.71
51239;BME280;38154;47.548;18.828;2023-03-03T14:15:34;98735.91;;;12.25;55.48
51239;BME280;38154;47.548;18.828;2023-03-03T14:20:47;98729.91;;;12.04;55.85
51239;BME280;38154;47.548;18.828;2023-03-03T14:26:16;98722.06;;;12.04;54.52
51239;BME280;38154;47.548;18.828;2023-03-03T14:28:47;98717.81;;;11.82;56.83
51239;BME280;38154;47.548;18.828;2023-03-03T14:31:24;98722.22;;;11.70;57.14
51239;BME280;38154;47.548;18.828;2023-03-03T14:33:58;98721.34;;;11.68;56.00
51239;BME280;38154;47.548;18.828;2023-03-03T14:36:28;98722.28;;;11.50;55.62
51239;BME280;38154;47.548;18.828;2023-03-03T14:38:55;98722.34;;;11.30;57.00
51239;BME280;38154;47.548;18.828;2023-03-03T14:41:34;98721.53;;;11.13;57.35
51239;BME280;38154;47.548;18.828;2023-03-03T14:44:21;98718.06;;;10.92;59.57
51239;BME280;38154;47.548;18.828;2023-03-03T14:49:38;98710.25;;;10.66;60.95
51239;BME280;38154;47.548;18.828;2023-03-03T14:52:19;98725.03;;;10.58;60.37
51239;BME280;38154;47.548;18.828;2023-03-03T14:54:52;98718.06;;;10.60;60.13
51239;BME280;38154;47.548;18.828;2023-03-03T14:59:56;98715.47;;;10.49;61.30
51239;BME280;38154;47.548;18.828;2023-03-03T15:02:34;98712.84;;;10.43;61.02
51239;BME280;38154;47.548;18.828;2023-03-03T15:18:16;98720.56;;;9.92;61.72
51239;BME280;38154;47.548;18.828;2023-03-03T15:20:46;98717.88;;;9.72;61.16
51239;BME280;38154;47.548;18.828;2023-03-03T15:34:50;98722.84;;;9.24;63.57
51239;BME280;38154;47.548;18.828;2023-03-03T15:37:39;98727.16;;;9.18;63.99
51239;BME280;38154;47.548;18.828;2023-03-03T15:40:34;98721.91;;;9.08;64.57
51239;BME280;38154;47.548;18.828;2023-03-03T15:43:05;98726.19;;;9.03;64.76
51239;BME280;38154;47.548;18.828;2023-03-03T15:45:47;98727.03;;;9.01;65.01
51239;BME280;38154;47.548;18.828;2023-03-03T15:53:36;98731.88;;;8.56;67.84
51239;BME280;38154;47.548;18.828;2023-03-03T16:02:16;98737.59;;;8.23;68.74
51239;BME280;38154;47.548;18.828;2023-03-03T16:10:21;98740.56;;;7.75;72.61
51239;BME280;38154;47.548;18.828;2023-03-03T16:12:58;98743.03;;;7.65;72.68
51239;BME280;38154;47.548;18.828;2023-03-03T16:15:53;98736.75;;;7.49;72.70
51239;BME280;38154;47.548;18.828;2023-03-03T16:26:21;98753.53;;;7.10;76.22
51239;BME280;38154;47.548;18.828;2023-03-03T16:31:36;98763.50;;;6.85;76.86
51239;BME280;38154;47.548;18.828;2023-03-03T16:39:14;98760.81;;;6.27;80.54
51239;BME280;38154;47.548;18.828;2023-03-03T16:42:01;98764.75;;;6.08;81.88
51239;BME280;38154;47.548;18.828;2023-03-03T16:52:28;98767.56;;;5.35;86.93
51239;BME280;38154;47.548;18.828;2023-03-03T16:54:58;98774.87;;;5.15;91.05
51239;BME280;38154;47.548;18.828;2023-03-03T17:00:37;98779.25;;;4.81;94.53
51239;BME280;38154;47.548;18.828;2023-03-03T17:14:35;98778.38;;;3.82;100.00
51239;BME280;38154;47.548;18.828;2023-03-03T17:20:19;98779.56;;;3.63;100.00
51239;BME280;38154;47.548;18.828;2023-03-03T17:23:14;98777.34;;;3.46;100.00
51239;BME280;38154;47.548;18.828;2023-03-03T17:26:19;98778.09;;;3.42;100.00
51239;BME280;38154;47.548;18.828;2023-03-03T17:37:03;98784.03;;;3.11;100.00
51239;BME280;38154;47.548;18.828;2023-03-03T17:42:44;98783.50;;;2.94;100.00
51239;BME280;38154;47.548;18.828;2023-03-03T17:45:14;98793.50;;;2.85;100.00
51239;BME280;38154;47.548;18.828;2023-03-03T17:53:21;98799.69;;;2.64;100.00
51239;BME280;38154;47.548;18.828;2023-03-03T17:56:16;98793.53;;;2.59;100.00